Time;durP1;ratioP1;P1;durP2;ratioP2;P2;SDS_P1;SDS_P2;PMS_P1;PMS_P2;Temp;Humidity;BMP_temperature;BMP_pressure;BME280_temperature;BME280_humidity;BME280_pressure;Samples;Min_cycle;Max_cycle;Signal;HPM_P1;HPM_P2
2022/04/16 00:02:00;;;;;;;12.37;8.93;;;5.90;99.90;;;;;;5076297;28;20642;-77
2022/04/16 00:04:27;;;;;;;14.13;9.43;;;5.90;99.90;;;;;;5076399;28;20171;-77
2022/04/16 00:06:53;;;;;;;12.43;10.10;;;5.90;99.90;;;;;;5075881;28;20203;-77
2022/04/16 00:09:18;;;;;;;11.00;9.43;;;5.80;99.90;;;;;;5057868;28;20274;-77
2022/04/16 00:11:44;;;;;;;11.10;9.07;;;5.80;99.90;;;;;;5075901;28;20236;-77
2022/04/16 00:14:09;;;;;;;13.63;9.33;;;5.80;99.90;;;;;;5076058;28;20262;-77
2022/04/16 00:16:35;;;;;;;11.50;9.33;;;5.80;99.90;;;;;;5058084;28;20542;-77
2022/04/16 00:19:01;;;;;;;12.53;8.77;;;5.80;99.90;;;;;;5075873;28;20670;-77
2022/04/16 00:21:26;;;;;;;14.40;11.13;;;5.80;99.90;;;;;;5076089;28;20182;-77
2022/04/16 00:23:53;;;;;;;12.47;10.87;;;5.80;99.90;;;;;;5076016;28;20183;-77
2022/04/16 00:26:20;;;;;;;14.57;10.83;;;5.80;99.90;;;;;;5057725;28;20289;-77
2022/04/16 00:28:46;;;;;;;12.63;10.80;;;5.80;99.90;;;;;;5078301;28;20199;-77
2022/04/16 00:31:13;;;;;;;16.27;12.50;;;5.80;99.90;;;;;;5079320;28;20230;-77
2022/04/16 00:33:38;;;;;;;14.37;11.63;;;5.80;99.90;;;;;;5077463;28;20179;-77
2022/04/16 00:36:04;;;;;;;13.00;10.37;;;5.80;99.90;;;;;;5057425;28;20264;-76
2022/04/16 00:38:29;;;;;;;15.53;10.93;;;5.80;99.90;;;;;;5056449;28;20234;-77
2022/04/16 00:40:55;;;;;;;15.13;10.87;;;5.80;99.90;;;;;;5074507;28;20214;-77
2022/04/16 00:43:25;;;;;;;13.20;10.93;;;5.70;99.90;;;;;;5074471;28;20233;-76
2022/04/16 00:45:52;;;;;;;13.37;10.70;;;5.70;99.90;;;;;;5056162;28;20210;-77
2022/04/16 00:48:19;;;;;;;15.37;11.80;;;5.60;99.90;;;;;;5075201;28;20203;-77
2022/04/16 00:50:44;;;;;;;13.23;11.10;;;5.60;99.90;;;;;;5057247;28;20285;-77
2022/04/16 00:53:12;;;;;;;17.37;11.97;;;5.50;99.90;;;;;;5057255;28;20629;-77
2022/04/16 00:55:38;;;;;;;16.37;11.43;;;5.50;99.90;;;;;;5073946;28;20185;-77
2022/04/16 00:58:03;;;;;;;13.17;11.13;;;5.50;99.90;;;;;;5075307;28;20274;-78
2022/04/16 01:00:29;;;;;;;14.30;10.73;;;5.50;99.90;;;;;;5057590;28;20183;-77
2022/04/16 01:02:58;;;;;;;14.03;11.33;;;5.50;99.90;;;;;;5058432;28;20558;-77
2022/04/16 01:05:24;;;;;;;14.30;12.00;;;5.50;99.90;;;;;;5061175;28;20264;-77
2022/04/16 01:07:58;;;;;;;14.93;12.00;;;5.40;99.90;;;;;;5060219;28;20277;-78
2022/04/16 01:10:26;;;;;;;15.73;11.50;;;5.50;99.90;;;;;;5057878;28;20191;-77
2022/04/16 01:12:52;;;;;;;17.23;12.37;;;5.40;99.90;;;;;;5056830;28;20222;-77
2022/04/16 01:15:20;;;;;;;13.97;11.20;;;5.40;99.90;;;;;;5075415;28;20187;-77
2022/04/16 01:17:47;;;;;;;13.53;11.47;;;5.40;99.90;;;;;;5074937;28;20186;-77
2022/04/16 01:20:13;;;;;;;13.90;11.77;;;5.40;99.90;;;;;;5075062;28;20186;-77
2022/04/16 01:22:39;;;;;;;14.43;12.27;;;5.40;99.90;;;;;;5075021;28;20189;-77
2022/04/16 01:25:07;;;;;;;15.33;12.53;;;5.30;99.90;;;;;;5056480;28;20210;-77
2022/04/16 01:27:35;;;;;;;17.53;12.37;;;5.30;99.90;;;;;;5056384;28;20197;-77
2022/04/16 01:30:04;;;;;;;16.27;13.30;;;5.30;99.90;;;;;;5048334;28;20191;-77
2022/04/16 01:32:32;;;;;;;17.17;13.60;;;5.30;99.90;;;;;;5074346;28;20198;-77
2022/04/16 01:34:59;;;;;;;16.30;12.63;;;5.20;99.90;;;;;;5074139;28;20171;-77
2022/04/16 01:37:24;;;;;;;14.97;12.50;;;5.20;99.90;;;;;;5073969;28;20190;-77
2022/04/16 01:39:49;;;;;;;14.30;11.40;;;5.20;99.90;;;;;;5073802;28;20669;-77
2022/04/16 01:42:15;;;;;;;13.17;10.20;;;5.20;99.90;;;;;;5074023;28;20175;-77
2022/04/16 01:44:43;;;;;;;14.03;10.67;;;5.20;99.90;;;;;;5074455;28;20178;-77
2022/04/16 01:47:10;;;;;;;12.97;10.53;;;5.20;99.90;;;;;;5055988;28;20209;-77
2022/04/16 01:49:36;;;;;;;13.80;11.30;;;5.10;99.90;;;;;;5055976;28;20213;-77
2022/04/16 01:52:02;;;;;;;13.77;10.93;;;5.10;99.90;;;;;;5074188;28;20175;-77
2022/04/16 01:54:28;;;;;;;16.63;11.73;;;5.10;99.90;;;;;;5055764;28;20190;-77
2022/04/16 01:56:53;;;;;;;14.53;11.00;;;5.00;99.90;;;;;;5073786;28;20175;-77
2022/04/16 01:59:19;;;;;;;15.67;12.27;;;5.00;99.90;;;;;;5073690;28;20621;-77
2022/04/16 02:01:45;;;;;;;14.67;11.67;;;5.00;99.90;;;;;;5073900;28;20712;-77
2022/04/16 02:04:11;;;;;;;13.03;10.70;;;5.00;99.90;;;;;;5073996;28;20194;-76
2022/04/16 02:06:36;;;;;;;15.40;11.33;;;5.00;99.90;;;;;;5073102;28;20773;-76
2022/04/16 02:09:03;;;;;;;14.10;11.47;;;5.00;99.90;;;;;;5073379;28;20285;-76
2022/04/16 02:11:28;;;;;;;14.20;11.63;;;5.00;99.90;;;;;;5055692;28;20277;-77
2022/04/16 02:13:54;;;;;;;17.20;11.17;;;5.00;99.90;;;;;;5073927;28;20221;-77
2022/04/16 02:16:19;;;;;;;13.60;11.53;;;5.00;99.90;;;;;;5073321;28;20191;-77
2022/04/16 02:18:45;;;;;;;16.50;11.53;;;4.90;99.90;;;;;;5055299;28;20298;-76
2022/04/16 02:21:10;;;;;;;14.23;11.63;;;4.90;99.90;;;;;;5073417;28;20190;-77
2022/04/16 02:23:37;;;;;;;16.10;11.70;;;4.90;99.90;;;;;;5073613;28;20190;-77
2022/04/16 02:26:07;;;;;;;15.60;11.73;;;4.90;99.90;;;;;;5073163;28;20210;-76
2022/04/16 02:28:34;;;;;;;17.43;12.60;;;4.90;99.90;;;;;;5073897;28;20191;-77
2022/04/16 02:31:00;;;;;;;16.47;13.03;;;4.80;99.90;;;;;;5073525;28;20265;-77
2022/04/16 02:33:26;;;;;;;18.70;13.10;;;4.80;99.90;;;;;;5073388;28;20176;-77
2022/04/16 02:35:51;;;;;;;15.60;12.53;;;4.80;99.90;;;;;;5073646;28;20229;-76
2022/04/16 02:38:17;;;;;;;15.63;13.20;;;4.80;99.90;;;;;;5073499;28;20195;-77
2022/04/16 02:40:42;;;;;;;18.10;13.57;;;4.80;99.90;;;;;;5055763;28;20182;-77
2022/04/16 02:43:11;;;;;;;14.97;12.30;;;4.80;99.90;;;;;;5055695;28;20191;-77
2022/04/16 02:48:20;;;;;;;22.03;15.43;;;4.80;99.90;;;;;;5073655;28;20214;-77
2022/04/16 02:50:46;;;;;;;23.97;15.60;;;4.80;99.90;;;;;;5073776;28;20546;-77
2022/04/16 02:53:11;;;;;;;20.67;15.70;;;4.80;99.90;;;;;;5055625;28;20643;-77
2022/04/16 02:55:37;;;;;;;21.53;17.63;;;4.80;99.90;;;;;;5055624;28;20264;-77
2022/04/16 02:58:03;;;;;;;21.83;16.33;;;4.80;99.90;;;;;;5073462;28;20620;-77
2022/04/16 03:00:29;;;;;;;21.97;16.87;;;4.80;99.90;;;;;;5074418;28;20594;-77
2022/04/16 03:02:54;;;;;;;23.33;17.10;;;4.90;99.90;;;;;;5073886;28;20183;-77
2022/04/16 03:05:20;;;;;;;23.17;16.40;;;4.80;99.90;;;;;;5055502;28;20566;-77
2022/04/16 03:07:46;;;;;;;22.17;17.13;;;4.80;99.90;;;;;;5055311;28;20670;-77
2022/04/16 03:10:12;;;;;;;21.37;17.63;;;4.80;99.90;;;;;;5056160;28;20175;-77
2022/04/16 03:12:42;;;;;;;24.33;16.87;;;4.80;99.90;;;;;;5073755;28;20206;-76
2022/04/16 03:17:54;;;;;;;21.80;17.60;;;4.80;99.90;;;;;;5074243;28;20662;-77
2022/04/16 03:20:20;;;;;;;22.00;17.83;;;4.80;99.90;;;;;;5076977;28;20545;-77
2022/04/16 03:22:46;;;;;;;21.53;18.13;;;4.80;99.90;;;;;;5077062;28;20179;-77
2022/04/16 03:25:11;;;;;;;23.53;18.37;;;4.80;99.90;;;;;;5058983;28;20711;-77
2022/04/16 03:27:37;;;;;;;24.90;18.43;;;4.80;99.90;;;;;;5076885;28;20646;-77
2022/04/16 03:30:06;;;;;;;24.57;17.63;;;4.80;99.90;;;;;;5078048;28;20182;-77
2022/04/16 03:32:32;;;;;;;23.30;17.57;;;4.80;99.90;;;;;;5078952;28;20189;-77
2022/04/16 03:34:57;;;;;;;24.10;19.07;;;4.80;99.90;;;;;;5079220;28;20171;-77
2022/04/16 03:37:27;;;;;;;20.87;17.70;;;4.80;99.90;;;;;;5061550;28;20225;-77
2022/04/16 03:39:56;;;;;;;24.87;18.33;;;4.80;99.90;;;;;;5079299;28;20195;-77
2022/04/16 03:42:21;;;;;;;25.33;18.47;;;4.80;99.90;;;;;;5076280;28;20229;-77
2022/04/16 03:44:47;;;;;;;24.10;18.93;;;4.80;99.90;;;;;;5076053;28;20179;-77
2022/04/16 03:47:12;;;;;;;25.77;18.37;;;4.80;99.90;;;;;;5076119;28;20345;-77
2022/04/16 03:49:38;;;;;;;22.43;17.77;;;4.80;99.90;;;;;;5058152;28;20199;-77
2022/04/16 03:52:04;;;;;;;25.03;18.57;;;4.80;99.90;;;;;;5057881;28;20574;-76
2022/04/16 04:00:03;;;;;;;23.77;18.80;;;4.70;99.90;;;;;;5076669;28;20316;-77
2022/04/16 04:02:29;;;;;;;25.30;19.47;;;4.70;99.90;;;;;;5076300;28;20168;-77
2022/04/16 04:04:56;;;;;;;24.67;18.93;;;4.70;99.90;;;;;;5076094;28;20647;-76
2022/04/16 04:07:21;;;;;;;25.20;18.13;;;4.70;99.90;;;;;;5058131;28;20183;-77
2022/04/16 04:09:47;;;;;;;22.20;18.13;;;4.70;99.90;;;;;;5058043;28;20218;-77
2022/04/16 04:12:14;;;;;;;22.67;18.07;;;4.70;99.90;;;;;;5075765;28;20234;-77
2022/04/16 04:14:41;;;;;;;24.07;18.83;;;4.70;99.90;;;;;;5075978;28;20221;-77
2022/04/16 04:17:08;;;;;;;20.63;18.27;;;4.70;99.90;;;;;;5075844;28;20174;-77
2022/04/16 04:19:35;;;;;;;26.07;18.50;;;4.60;99.90;;;;;;5057558;28;20641;-77
2022/04/16 04:22:02;;;;;;;26.63;18.10;;;4.60;99.90;;;;;;5067588;28;20175;-77
2022/04/16 04:24:27;;;;;;;23.83;17.60;;;4.60;99.90;;;;;;5075370;28;20693;-77
2022/04/16 04:27:00;;;;;;;27.70;18.87;;;4.60;99.90;;;;;;5057540;28;20246;-77
2022/04/16 04:29:27;;;;;;;24.90;18.37;;;4.60;99.90;;;;;;5057188;28;20195;-77
2022/04/16 04:31:54;;;;;;;27.53;18.60;;;4.60;99.90;;;;;;5057404;28;20270;-76
2022/04/16 04:34:19;;;;;;;25.17;19.47;;;4.60;99.90;;;;;;5057273;28;20233;-75
2022/04/16 04:36:45;;;;;;;24.00;19.70;;;4.50;99.90;;;;;;5057343;28;20183;-77
2022/04/16 04:39:12;;;;;;;25.93;19.67;;;4.50;99.90;;;;;;5074879;28;20206;-77
2022/04/16 04:41:38;;;;;;;24.97;19.27;;;4.50;99.90;;;;;;5057435;28;20546;-75
2022/04/16 04:44:04;;;;;;;27.30;19.50;;;4.50;99.90;;;;;;5057156;28;20186;-77
2022/04/16 04:46:30;;;;;;;26.53;19.27;;;4.50;99.90;;;;;;5075037;28;20290;-76
2022/04/16 04:48:56;;;;;;;26.07;20.00;;;4.40;99.90;;;;;;5057037;28;20206;-77
2022/04/16 04:51:22;;;;;;;28.17;19.70;;;4.40;99.90;;;;;;5075117;28;20171;-77
2022/04/16 04:53:48;;;;;;;25.50;20.97;;;4.40;99.90;;;;;;5075035;28;20258;-77
2022/04/16 04:56:13;;;;;;;26.63;19.97;;;4.40;99.90;;;;;;5057080;28;20183;-77
2022/04/16 04:58:39;;;;;;;24.80;19.87;;;4.40;99.90;;;;;;5056844;28;20198;-76
2022/04/16 05:01:04;;;;;;;25.27;19.27;;;4.30;99.90;;;;;;5075347;28;20179;-77
2022/04/16 05:03:30;;;;;;;27.43;18.57;;;4.30;99.90;;;;;;5076253;28;20557;-77
2022/04/16 05:05:55;;;;;;;24.27;19.00;;;4.30;99.90;;;;;;5074883;28;20238;-77
2022/04/16 05:08:21;;;;;;;24.77;19.27;;;4.30;99.90;;;;;;5058108;28;20214;-77
2022/04/16 05:10:46;;;;;;;25.10;18.73;;;4.30;99.90;;;;;;5076054;28;20270;-77
2022/04/16 05:13:12;;;;;;;28.07;19.97;;;4.40;99.90;;;;;;5057510;28;20278;-75
2022/04/16 05:18:10;;;;;;;28.23;19.00;;;4.40;99.90;;;;;;5098585;22;20266;-75
2022/04/16 05:20:35;;;;;;;26.70;19.27;;;4.40;99.90;;;;;;5073867;28;20187;-74
2022/04/16 05:23:01;;;;;;;25.63;19.47;;;4.40;99.90;;;;;;5064528;28;20258;-76
2022/04/16 05:25:26;;;;;;;27.63;20.93;;;4.40;99.90;;;;;;5073834;28;20705;-75
2022/04/16 05:27:52;;;;;;;26.00;19.30;;;4.40;99.90;;;;;;5072381;28;20199;-75
2022/04/16 05:30:29;;;;;;;28.03;20.70;;;4.40;99.90;;;;;;5070460;28;20670;-75
2022/04/16 05:32:56;;;;;;;26.77;21.13;;;4.40;99.90;;;;;;5073387;28;20151;-77
2022/04/16 05:35:22;;;;;;;29.53;21.70;;;4.50;99.90;;;;;;5072810;28;20254;-74
2022/04/16 05:37:47;;;;;;;29.43;22.10;;;4.50;99.90;;;;;;5070120;28;20285;-74
2022/04/16 05:40:13;;;;;;;33.37;21.20;;;4.60;99.90;;;;;;5065448;28;20277;-75
2022/04/16 05:42:40;;;;;;;29.57;22.13;;;4.60;99.90;;;;;;5073105;28;20182;-75
2022/04/16 05:45:07;;;;;;;34.57;24.10;;;4.70;99.90;;;;;;5073420;28;20658;-75
2022/04/16 05:47:32;;;;;;;32.07;23.60;;;4.70;99.90;;;;;;5068424;28;20210;-75
2022/04/16 05:49:58;;;;;;;29.47;22.70;;;4.70;99.90;;;;;;5072029;28;20285;-74
2022/04/16 05:52:24;;;;;;;32.13;23.27;;;4.80;99.90;;;;;;5073534;28;20567;-75
2022/04/16 05:54:51;;;;;;;35.43;25.80;;;4.90;99.90;;;;;;5073696;28;20750;-75
2022/04/16 05:57:17;;;;;;;37.60;25.90;;;5.00;99.90;;;;;;5066743;28;20206;-75
2022/04/16 05:59:43;;;;;;;31.97;23.53;;;5.00;99.90;;;;;;5072288;28;20304;-75
2022/04/16 06:02:10;;;;;;;33.80;24.20;;;5.10;99.90;;;;;;5065494;28;20187;-75
2022/04/16 06:04:35;;;;;;;36.77;26.77;;;5.10;99.90;;;;;;5074006;28;20171;-75
2022/04/16 06:07:01;;;;;;;35.53;25.27;;;5.20;99.90;;;;;;5064761;28;20695;-75
2022/04/16 06:09:28;;;;;;;35.80;26.40;;;5.30;99.90;;;;;;5073904;28;20178;-75
2022/04/16 06:12:00;;;;;;;38.80;26.27;;;5.30;99.90;;;;;;5073070;28;20171;-75
2022/04/16 06:14:25;;;;;;;45.13;29.80;;;5.40;99.90;;;;;;5073351;28;20176;-76
2022/04/16 06:16:51;;;;;;;54.43;33.00;;;5.50;99.90;;;;;;5070168;28;20318;-75
2022/04/16 06:19:16;;;;;;;49.57;33.03;;;5.70;99.90;;;;;;5065945;28;20236;-75
2022/04/16 06:21:42;;;;;;;55.43;35.47;;;5.80;99.90;;;;;;5072922;28;20270;-75
2022/04/16 06:24:07;;;;;;;57.77;35.93;;;5.90;99.90;;;;;;5064306;28;20233;-75
2022/04/16 06:26:33;;;;;;;63.37;36.40;;;6.10;99.90;;;;;;5072723;28;20728;-75
2022/04/16 06:28:58;;;;;;;64.23;37.80;;;6.30;99.90;;;;;;5072740;28;20265;-75
2022/04/16 06:31:24;;;;;;;59.47;37.03;;;6.40;99.90;;;;;;5072717;28;20186;-75
2022/04/16 06:33:49;;;;;;;60.20;36.83;;;6.50;99.90;;;;;;5072533;28;20183;-75
2022/04/16 06:36:15;;;;;;;63.93;38.63;;;6.60;99.90;;;;;;5072582;28;20596;-75
2022/04/16 06:38:41;;;;;;;67.17;38.53;;;6.80;99.90;;;;;;5072561;28;20236;-75
2022/04/16 06:41:07;;;;;;;66.07;38.20;;;6.90;99.90;;;;;;5072668;28;20171;-75
2022/04/16 06:43:33;;;;;;;67.97;39.50;;;7.10;99.90;;;;;;5072135;28;20554;-75
2022/04/16 06:45:58;;;;;;;66.23;38.23;;;7.20;99.90;;;;;;5072369;28;20207;-75
2022/04/16 06:48:23;;;;;;;56.43;36.77;;;7.30;99.90;;;;;;5072405;28;20604;-75
2022/04/16 06:50:49;;;;;;;55.53;34.30;;;7.40;99.90;;;;;;5072399;28;20261;-75
2022/04/16 06:53:15;;;;;;;52.73;33.97;;;7.50;99.90;;;;;;5066016;28;20210;-75
2022/04/16 06:55:41;;;;;;;48.87;31.77;;;7.70;99.90;;;;;;5076638;28;20204;-75
2022/04/16 06:58:06;;;;;;;51.13;31.60;;;7.80;99.90;;;;;;5076288;28;20198;-75
2022/04/16 07:00:33;;;;;;;47.00;30.07;;;7.90;99.90;;;;;;5076451;28;20182;-75
2022/04/16 07:02:58;;;;;;;44.73;28.73;;;8.00;99.90;;;;;;5075943;28;20188;-75
2022/04/16 07:05:24;;;;;;;45.00;28.30;;;8.00;99.90;;;;;;5069970;28;20207;-75
2022/04/16 07:07:50;;;;;;;39.30;25.00;;;8.10;99.90;;;;;;5076270;28;20195;-75
2022/04/16 07:10:15;;;;;;;32.73;23.33;;;8.30;99.90;;;;;;5076486;28;20175;-75
2022/04/16 07:12:41;;;;;;;30.03;21.27;;;8.40;99.90;;;;;;5076749;28;20202;-75
2022/04/16 07:15:07;;;;;;;25.50;19.83;;;8.50;99.90;;;;;;5067516;28;20277;-75
2022/04/16 07:17:32;;;;;;;26.40;20.13;;;8.50;99.90;;;;;;5074662;28;20219;-75
2022/04/16 07:19:58;;;;;;;27.97;19.80;;;8.70;99.90;;;;;;5074848;28;20237;-75
2022/04/16 07:22:24;;;;;;;26.93;18.20;;;8.70;99.90;;;;;;5069750;28;20182;-76
2022/04/16 07:24:49;;;;;;;25.83;18.20;;;8.80;99.90;;;;;;5076256;28;20657;-75
2022/04/16 07:27:16;;;;;;;24.33;16.60;;;8.90;99.90;;;;;;5076068;28;20234;-76
2022/04/16 07:29:41;;;;;;;21.50;17.17;;;8.90;99.90;;;;;;5076607;28;20308;-77
2022/04/16 07:32:07;;;;;;;22.93;16.83;;;9.00;99.90;;;;;;5075923;28;20257;-77
2022/04/16 07:34:33;;;;;;;23.47;17.10;;;9.10;99.90;;;;;;5075904;28;20179;-75
2022/04/16 07:36:58;;;;;;;20.23;16.67;;;9.10;99.90;;;;;;5075590;28;20197;-75
2022/04/16 07:39:24;;;;;;;21.37;17.57;;;9.20;99.90;;;;;;5075712;28;20177;-75
2022/04/16 07:41:51;;;;;;;20.63;16.60;;;9.30;99.90;;;;;;5073079;28;20182;-75
2022/04/16 07:44:17;;;;;;;19.93;15.47;;;9.40;99.90;;;;;;5075779;28;20173;-75
2022/04/16 07:46:42;;;;;;;21.13;14.30;;;9.50;99.90;;;;;;5075432;28;20217;-76
2022/04/16 07:49:08;;;;;;;16.77;14.27;;;9.50;99.90;;;;;;5067312;28;20276;-76
2022/04/16 07:51:34;;;;;;;18.33;14.23;;;9.60;99.90;;;;;;5075499;28;20175;-76
2022/04/16 07:54:00;;;;;;;18.27;14.67;;;9.70;99.90;;;;;;5075673;28;20721;-76
2022/04/16 07:56:26;;;;;;;18.77;13.53;;;9.80;99.90;;;;;;5075351;28;20572;-76
2022/04/16 07:58:53;;;;;;;17.50;14.27;;;9.80;99.90;;;;;;5075491;28;20213;-77
2022/04/16 08:01:20;;;;;;;17.13;13.60;;;9.90;99.90;;;;;;5068514;28;20190;-77
2022/04/16 08:03:45;;;;;;;17.93;13.60;;;10.00;99.90;;;;;;5074696;28;20214;-77
2022/04/16 08:06:11;;;;;;;18.23;12.73;;;10.00;99.90;;;;;;5075314;28;20230;-76
2022/04/16 08:08:37;;;;;;;16.43;12.83;;;10.10;99.90;;;;;;5075165;28;20167;-76
2022/04/16 08:11:03;;;;;;;17.43;13.13;;;10.20;99.90;;;;;;5075084;28;20344;-77
2022/04/16 08:13:28;;;;;;;17.17;11.63;;;10.30;99.90;;;;;;5075415;28;20182;-76
2022/04/16 08:15:54;;;;;;;15.90;12.17;;;10.40;99.90;;;;;;5073202;28;20194;-77
2022/04/16 08:18:19;;;;;;;14.33;11.43;;;10.40;99.90;;;;;;5110319;28;20177;-77
2022/04/16 08:20:45;;;;;;;15.67;11.37;;;10.50;99.90;;;;;;5116056;28;20186;-78
2022/04/16 08:23:11;;;;;;;15.37;10.50;;;10.60;56.70;;;;;;5116373;28;20181;-78
2022/04/16 08:28:04;;;;;;;14.77;10.83;;;10.70;1.00;;;;;;5116531;28;20232;-77
2022/04/16 08:30:30;;;;;;;11.60;9.73;;;10.80;1.80;;;;;;5097447;28;20672;-78
2022/04/16 08:32:55;;;;;;;13.13;10.17;;;10.80;1.00;;;;;;5116935;28;20268;-78
2022/04/16 08:35:21;;;;;;;13.20;9.63;;;10.90;99.90;;;;;;5098913;28;20213;-78
2022/04/16 08:37:49;;;;;;;11.40;8.57;;;10.90;1.00;;;;;;5097068;28;20612;-75
2022/04/16 08:40:16;;;;;;;10.93;8.93;;;11.00;99.90;;;;;;5115467;28;20186;-76
2022/04/16 08:42:43;;;;;;;11.00;8.07;;;11.00;1.00;;;;;;5098529;28;20181;-78
2022/04/16 08:45:10;;;;;;;10.17;9.03;;;11.10;99.90;;;;;;5098884;28;20188;-78
2022/04/16 08:47:38;;;;;;;11.23;8.47;;;11.20;99.90;;;;;;5115652;28;20189;-76
2022/04/16 08:50:05;;;;;;;11.73;8.40;;;11.30;94.40;;;;;;5109211;28;20182;-76
2022/04/16 08:52:33;;;;;;;9.83;7.20;;;11.30;99.90;;;;;;5103086;28;20178;-76
2022/04/16 08:55:00;;;;;;;8.80;7.07;;;11.30;1.00;;;;;;5112577;28;20192;-76
2022/04/16 08:57:25;;;;;;;7.67;6.50;;;11.40;1.00;;;;;;5096277;28;20200;-76
2022/04/16 08:59:52;;;;;;;8.23;6.37;;;11.50;1.00;;;;;;5114777;28;20173;-76
2022/04/16 09:02:23;;;;;;;10.00;7.70;;;11.50;1.00;;;;;;5113753;28;20190;-76
2022/04/16 09:04:49;;;;;;;10.07;8.17;;;11.70;99.90;;;;;;5114050;28;20222;-76
2022/04/16 09:07:15;;;;;;;9.87;7.70;;;11.80;99.90;;;;;;5114350;28;20209;-76
2022/04/16 09:09:41;;;;;;;9.33;6.83;;;11.90;1.00;;;;;;5094745;28;20178;-76
2022/04/16 09:12:19;;;;;;;9.43;8.20;;;12.00;99.90;;;;;;5112432;28;20182;-76
2022/04/16 09:14:46;;;;;;;9.53;6.80;;;12.00;49.50;;;;;;5104704;28;20174;-76
2022/04/16 09:17:18;;;;;;;9.17;6.63;;;12.10;1.00;;;;;;5112381;28;20217;-76
2022/04/16 09:19:53;;;;;;;8.47;7.10;;;12.10;49.90;;;;;;5094689;28;20576;-75
2022/04/16 09:22:35;;;;;;;6.30;5.57;;;12.10;3.60;;;;;;5111277;28;20715;-75
2022/04/16 09:25:02;;;;;;;8.13;5.87;;;12.20;1.00;;;;;;5114708;28;20530;-78
2022/04/16 09:27:38;;;;;;;9.23;6.47;;;12.10;67.70;;;;;;5096506;28;20209;-76
2022/04/16 09:30:05;;;;;;;9.53;6.67;;;12.10;30.80;;;;;;5113385;28;20246;-76
2022/04/16 09:32:30;;;;;;;9.63;6.43;;;12.10;99.90;;;;;;5109340;28;20196;-76
2022/04/16 09:34:56;;;;;;;4.87;4.37;;;12.20;1.00;;;;;;5093028;28;20564;-76
2022/04/16 09:37:24;;;;;;;6.40;5.00;;;12.30;99.90;;;;;;5095824;28;20202;-77
2022/04/16 09:39:50;;;;;;;5.77;5.17;;;12.30;99.90;;;;;;5095601;28;20243;-76
2022/04/16 09:42:28;;;;;;;6.00;4.50;;;12.40;99.90;;;;;;5094609;28;20214;-76
2022/04/16 09:44:54;;;;;;;5.77;4.17;;;12.50;96.10;;;;;;5114262;28;20192;-77
2022/04/16 09:47:24;;;;;;;8.47;5.30;;;12.60;54.40;;;;;;5096285;28;20737;-76
2022/04/16 09:49:53;;;;;;;6.47;4.43;;;12.70;1.00;;;;;;5114154;28;20184;-77
2022/04/16 09:52:22;;;;;;;6.90;5.30;;;12.80;1.00;;;;;;5114283;28;20174;-76
2022/04/16 09:54:51;;;;;;;5.87;4.67;;;12.80;1.00;;;;;;5096026;28;20177;-77
2022/04/16 09:57:21;;;;;;;5.00;4.13;;;12.90;1.00;;;;;;5114057;28;20190;-77
2022/04/16 09:59:52;;;;;;;4.80;4.20;;;12.90;1.00;;;;;;5113968;28;20181;-76
2022/04/16 10:02:19;;;;;;;7.20;4.43;;;13.00;1.00;;;;;;5113939;28;20158;-76
2022/04/16 10:04:46;;;;;;;5.80;4.43;;;12.90;99.90;;;;;;5095568;28;20272;-76
2022/04/16 10:07:13;;;;;;;5.50;4.17;;;13.00;1.00;;;;;;5113499;28;20703;-77
2022/04/16 10:09:41;;;;;;;6.03;4.33;;;13.00;99.90;;;;;;5113883;28;20535;-77
2022/04/16 10:15:02;;;;;;;7.50;4.07;;;13.10;99.90;;;;;;5114099;28;20153;-75
2022/04/16 10:17:35;;;;;;;5.80;5.20;;;13.10;1.00;;;;;;5095893;28;20221;-77
2022/04/16 10:20:07;;;;;;;6.33;4.53;;;13.00;99.90;;;;;;5114492;28;20624;-77
2022/04/16 10:22:33;;;;;;;5.87;4.17;;;13.00;1.00;;;;;;5114079;28;20174;-77
2022/04/16 10:24:59;;;;;;;4.33;3.77;;;13.10;99.90;;;;;;5113922;28;20192;-77
2022/04/16 10:27:29;;;;;;;4.07;3.60;;;13.20;99.90;;;;;;5113726;28;20231;-77
2022/04/16 10:30:03;;;;;;;5.80;4.07;;;13.20;1.00;;;;;;5095612;28;20264;-77
2022/04/16 10:32:39;;;;;;;5.43;4.80;;;13.20;1.00;;;;;;5095680;28;20177;-77
2022/04/16 10:35:05;;;;;;;6.50;5.03;;;13.30;99.90;;;;;;5095640;28;20660;-76
2022/04/16 10:37:38;;;;;;;8.63;5.13;;;13.30;99.90;;;;;;5113132;28;20197;-76
2022/04/16 10:40:25;;;;;;;5.03;4.47;;;13.30;1.00;;;;;;5113351;28;20158;-77
2022/04/16 10:42:58;;;;;;;6.17;4.27;;;13.40;99.90;;;;;;5113351;28;20157;-76
2022/04/16 10:45:24;;;;;;;7.03;4.70;;;13.50;1.00;;;;;;5113555;28;20169;-77
2022/04/16 10:47:51;;;;;;;7.03;4.40;;;13.50;1.00;;;;;;5114098;28;20197;-76
2022/04/16 10:50:18;;;;;;;4.57;3.73;;;13.50;1.00;;;;;;5095654;28;20178;-77
2022/04/16 10:53:02;;;;;;;4.33;3.73;;;13.50;1.00;;;;;;5096196;28;20177;-77
2022/04/16 10:55:32;;;;;;;3.87;3.40;;;13.50;1.00;;;;;;5114259;28;20184;-77
2022/04/16 10:58:05;;;;;;;6.03;4.90;;;13.50;1.00;;;;;;5095681;28;20198;-77
2022/04/16 11:00:46;;;;;;;9.27;5.30;;;13.60;1.00;;;;;;5096295;28;20182;-77
2022/04/16 11:03:26;;;;;;;7.00;5.07;;;13.60;1.00;;;;;;5113980;28;20168;-77
2022/04/16 11:06:00;;;;;;;6.53;4.93;;;13.60;1.00;;;;;;5098843;28;20194;-77
2022/04/16 11:08:27;;;;;;;6.63;5.27;;;13.70;99.90;;;;;;5113830;28;20713;-77
2022/04/16 11:11:01;;;;;;;6.43;4.43;;;13.70;99.90;;;;;;5095841;28;20201;-77
2022/04/16 11:13:31;;;;;;;6.03;5.00;;;13.70;99.90;;;;;;5113873;28;20190;-77
2022/04/16 11:16:00;;;;;;;6.27;5.37;;;13.80;99.90;;;;;;5113159;28;20208;-77
2022/04/16 11:18:35;;;;;;;6.13;4.80;;;13.80;99.90;;;;;;5115840;28;20209;-77
2022/04/16 11:21:06;;;;;;;5.27;3.80;;;13.90;1.00;;;;;;5095772;28;20173;-76
2022/04/16 11:23:39;;;;;;;5.07;4.57;;;13.90;1.00;;;;;;5095725;28;20273;-77
2022/04/16 11:34:25;;;;;;;5.67;4.70;;;13.90;99.90;;;;;;5114783;28;20722;-77
2022/04/16 11:36:50;;;;;;;5.87;4.37;;;13.90;1.00;;;;;;5095448;28;20300;-77
2022/04/16 11:39:21;;;;;;;6.40;4.90;;;13.90;1.00;;;;;;5115308;28;20188;-77
2022/04/16 11:42:14;;;;;;;5.70;4.70;;;14.00;1.00;;;;;;5117963;28;20169;-77
2022/04/16 11:44:41;;;;;;;7.57;5.40;;;14.10;1.00;;;;;;5116988;28;20193;-77
2022/04/16 11:47:13;;;;;;;7.67;5.80;;;14.10;1.00;;;;;;5098802;28;20245;-77
2022/04/16 11:49:48;;;;;;;5.97;4.60;;;14.30;1.00;;;;;;5098724;28;20644;-77
2022/04/16 11:52:14;;;;;;;7.37;4.97;;;14.40;7.50;;;;;;5098372;28;20177;-77
2022/04/16 11:54:40;;;;;;;5.47;4.50;;;14.40;1.00;;;;;;5098452;28;20597;-77
2022/04/16 11:57:06;;;;;;;6.83;5.07;;;14.40;1.00;;;;;;5117624;28;20199;-77
2022/04/16 11:59:32;;;;;;;6.10;5.30;;;14.40;99.90;;;;;;5116668;28;20178;-77
2022/04/16 12:02:05;;;;;;;8.23;4.83;;;14.40;1.00;;;;;;5116957;28;20177;-77
2022/04/16 12:04:37;;;;;;;5.33;4.40;;;14.40;1.00;;;;;;5116913;28;20194;-76
2022/04/16 12:07:03;;;;;;;6.37;4.40;;;14.40;1.00;;;;;;5116246;28;20206;-77
2022/04/16 12:09:32;;;;;;;5.00;4.13;;;14.50;1.00;;;;;;5116604;28;20258;-77
2022/04/16 12:12:00;;;;;;;5.77;4.83;;;14.60;1.00;;;;;;5116985;28;20246;-77
2022/04/16 12:14:26;;;;;;;5.67;4.23;;;14.60;99.90;;;;;;5116089;28;20170;-77
2022/04/16 12:16:59;;;;;;;5.17;4.43;;;14.60;99.90;;;;;;5116290;28;20215;-77
2022/04/16 12:19:29;;;;;;;5.07;4.07;;;14.70;99.90;;;;;;5115847;28;20212;-77
2022/04/16 12:21:55;;;;;;;5.87;4.43;;;14.70;1.00;;;;;;5098290;28;20181;-77
2022/04/16 12:24:28;;;;;;;4.80;3.87;;;14.70;99.90;;;;;;5098097;28;20185;-77
2022/04/16 12:26:57;;;;;;;7.00;4.43;;;14.80;11.80;;;;;;5116147;28;20197;-77
2022/04/16 12:29:27;;;;;;;5.97;4.33;;;14.80;99.90;;;;;;5116487;28;20261;-78
2022/04/16 12:32:00;;;;;;;6.63;4.30;;;14.70;99.90;;;;;;5098406;28;20178;-77
2022/04/16 12:34:26;;;;;;;4.80;4.00;;;14.70;1.00;;;;;;5116128;28;20173;-77
2022/04/16 12:36:52;;;;;;;4.77;3.93;;;14.70;1.00;;;;;;5116881;28;20198;-77
2022/04/16 12:39:18;;;;;;;4.27;3.80;;;14.80;1.00;;;;;;5116197;28;20166;-77
2022/04/16 12:41:44;;;;;;;4.67;3.43;;;14.80;99.90;;;;;;5116862;28;20205;-77
2022/04/16 12:44:10;;;;;;;4.57;3.50;;;14.80;99.90;;;;;;5116876;28;20177;-78
2022/04/16 12:46:35;;;;;;;5.70;4.10;;;14.80;1.00;;;;;;5097832;28;20241;-77
2022/04/16 12:49:01;;;;;;;4.47;3.80;;;14.70;99.90;;;;;;5115725;28;20170;-77
2022/04/16 12:51:27;;;;;;;6.77;3.70;;;14.70;99.90;;;;;;5115749;28;20212;-76
2022/04/16 12:53:53;;;;;;;4.13;3.70;;;14.80;1.00;;;;;;5115928;28;20173;-77
2022/04/16 12:56:18;;;;;;;4.50;3.80;;;14.80;1.00;;;;;;5116664;28;20664;-77
2022/04/16 12:58:44;;;;;;;5.30;4.00;;;14.90;99.90;;;;;;5117192;28;20186;-77
2022/04/16 13:01:10;;;;;;;4.33;3.27;;;15.00;99.90;;;;;;5117487;28;20185;-77
2022/04/16 13:03:35;;;;;;;4.07;3.10;;;14.90;1.00;;;;;;5098933;28;20203;-77
2022/04/16 13:06:02;;;;;;;3.57;2.97;;;15.00;99.90;;;;;;5116598;28;20286;-77
2022/04/16 13:08:30;;;;;;;6.43;3.60;;;15.00;99.90;;;;;;5117240;28;20166;-77